Rio Tinto, Brazil
Current Conditions -  °F | °C
As of 12:00 PM on Monday 22 Dec 2014 (Local Time) from SBJP Reporting Station
Broken Clouds Broken Clouds  
Wind Chill: 86°   Ceiling: 3000
Heat Index: 90°   Visibility: 6mi
Dew Point: 70°   Wind: 14mph
Humidity: 58%   Direction: 80°E
Pressure: 29.94"   Gusts: NA
Location:  6.8°S, 35.08°W
Report Text: SBJP 221500Z 08012KT 9999 BKN030 30/21 Q1014
Loading
Personal Weather Stations






























Interactive Weather Map New forecast layout! Learn more

10-Day Weather Forecast

Advertisements
Track Severe Weather on mobile